createdAt,value
2018-07-06T00:05:28.967Z,15.5
2018-07-06T00:10:57.512Z,15.5
2018-07-06T00:16:22.065Z,15.5
2018-07-06T00:21:50.629Z,15.6
2018-07-06T00:27:20.319Z,15.6
2018-07-06T00:32:48.805Z,15.6
2018-07-06T00:38:17.395Z,15.6
2018-07-06T00:43:46.315Z,15.6
2018-07-06T00:49:19.599Z,15.6
2018-07-06T00:54:44.208Z,15.6
2018-07-06T01:00:13.056Z,15.6
2018-07-06T01:05:42.642Z,15.6
2018-07-06T01:11:17.013Z,15.6
2018-07-06T01:16:45.538Z,15.6
2018-07-06T01:22:10.124Z,15.6
2018-07-06T01:22:11.029Z,15.6
2018-07-06T01:27:38.665Z,15.6
2018-07-06T01:33:08.349Z,15.6
2018-07-06T01:33:09.539Z,15.6
2018-07-06T01:38:37.094Z,15.6
2018-07-06T01:44:06.436Z,15.6
2018-07-06T01:44:07.714Z,15.6
2018-07-06T01:49:36.180Z,15.6
2018-07-06T01:55:04.716Z,15.6
2018-07-06T02:00:34.503Z,15.6
2018-07-06T02:06:08.491Z,15.6
2018-07-06T02:11:32.554Z,15.6
2018-07-06T02:17:06.010Z,15.5
2018-07-06T02:22:29.585Z,15.5
2018-07-06T02:27:58.089Z,15.5
2018-07-06T02:33:26.885Z,15.4
2018-07-06T02:39:00.611Z,15.4
2018-07-06T02:44:24.821Z,15.3
2018-07-06T02:49:58.593Z,15.3
2018-07-06T02:55:22.904Z,15.3
2018-07-06T03:00:51.542Z,15.2
2018-07-06T03:06:21.012Z,15.2
2018-07-06T03:11:54.553Z,15.2
2018-07-06T03:17:19.088Z,15.1
2018-07-06T03:22:47.902Z,15.1
2018-07-06T03:28:16.325Z,15.1
2018-07-06T03:33:44.885Z,15.1
2018-07-06T03:39:14.516Z,15.1
2018-07-06T03:44:47.123Z,15.1
2018-07-06T03:50:10.390Z,15
2018-07-06T03:55:38.898Z,14.9
2018-07-06T04:01:07.757Z,14.9
2018-07-06T04:06:36.915Z,14.9
2018-07-06T04:12:06.477Z,14.8
2018-07-06T04:17:35.995Z,14.9
2018-07-06T04:23:09.480Z,14.9
2018-07-06T04:28:34.001Z,15
2018-07-06T04:34:03.761Z,15
2018-07-06T04:39:32.110Z,15
2018-07-06T04:45:00.839Z,15
2018-07-06T04:50:30.153Z,15
2018-07-06T04:56:00.044Z,15.1
2018-07-06T05:01:33.268Z,15.2
2018-07-06T05:06:57.880Z,15.3
2018-07-06T05:12:31.297Z,15.3
2018-07-06T05:17:54.844Z,15.3
2018-07-06T05:23:28.590Z,15.3
2018-07-06T05:28:51.959Z,15.2
2018-07-06T05:34:20.506Z,15.1
2018-07-06T05:39:50.391Z,15.2
2018-07-06T05:45:18.626Z,15.3
2018-07-06T05:50:48.231Z,15.4
2018-07-06T05:56:22.770Z,15.5
2018-07-06T06:01:47.483Z,15.6
2018-07-06T06:07:16.949Z,15.6
2018-07-06T06:12:45.817Z,15.5
2018-07-06T06:18:20.156Z,15.5
2018-07-06T06:23:44.918Z,15.6
2018-07-06T06:29:13.368Z,15.8
2018-07-06T06:34:42.829Z,15.9
2018-07-06T06:40:16.500Z,15.9
2018-07-06T06:45:45.122Z,16
2018-07-06T06:51:08.679Z,16.1
2018-07-06T06:56:37.394Z,16.2
2018-07-06T07:02:11.282Z,16.3
2018-07-06T07:07:35.693Z,16.3
2018-07-06T07:13:04.318Z,16.4
2018-07-06T07:18:38.184Z,16.5
2018-07-06T07:24:01.911Z,16.7
2018-07-06T07:29:31.478Z,16.8
2018-07-06T07:35:06.075Z,16.9
2018-07-06T07:40:34.664Z,16.9
2018-07-06T07:45:59.910Z,17
2018-07-06T07:51:28.370Z,17.1
2018-07-06T07:56:58.012Z,17.1
2018-07-06T08:02:27.553Z,17.2
2018-07-06T08:07:56.286Z,17.3
2018-07-06T08:13:26.312Z,17.4
2018-07-06T08:18:54.859Z,17.5
2018-07-06T08:24:23.613Z,17.6
2018-07-06T08:29:52.385Z,17.7
2018-07-06T08:35:21.749Z,17.8
2018-07-06T08:40:56.125Z,17.8
2018-07-06T08:46:19.909Z,17.8
2018-07-06T08:51:53.663Z,17.9
2018-07-06T08:57:22.992Z,18
2018-07-06T09:02:47.341Z,18
2018-07-06T09:08:16.547Z,18.1
2018-07-06T09:08:16.880Z,18.1
2018-07-06T09:13:45.268Z,18.1
2018-07-06T09:19:14.153Z,18.2
2018-07-06T09:24:43.765Z,18.3
2018-07-06T09:30:12.833Z,18.4
2018-07-06T09:35:47.546Z,18.4
2018-07-06T09:41:16.653Z,18.4
2018-07-06T09:46:46.216Z,18.5
2018-07-06T10:14:10.114Z,18.7
2018-07-06T10:19:38.672Z,18.7
2018-07-06T10:25:08.699Z,18.8
2018-07-06T10:30:38.506Z,18.8
2018-07-06T10:36:08.418Z,18.9
2018-07-06T10:41:37.418Z,19
2018-07-06T10:47:06.549Z,19
2018-07-06T10:52:36.321Z,19
2018-07-06T10:58:10.264Z,19
2018-07-06T11:03:40.191Z,19
2018-07-06T11:09:10.703Z,19.1
2018-07-06T11:14:35.050Z,19.1
2018-07-06T11:20:04.070Z,19.1
2018-07-06T11:25:32.986Z,19.1
2018-07-06T11:31:03.018Z,19.2
2018-07-06T11:36:37.313Z,19.3
2018-07-06T11:42:01.980Z,19.3
2018-07-06T11:47:31.955Z,19.2
2018-07-06T11:53:01.228Z,19.2
2018-07-06T11:58:30.818Z,19.2
2018-07-06T12:04:00.808Z,19.3
2018-07-06T12:14:59.903Z,19.4
2018-07-06T12:20:33.970Z,19.5
2018-07-06T12:25:59.057Z,19.5
2018-07-06T12:31:28.965Z,19.5
2018-07-06T12:36:58.987Z,19.4
2018-07-06T12:42:29.028Z,19.4
2018-07-06T12:47:57.832Z,19.4
2018-07-06T13:15:29.479Z,19.6
2018-07-06T13:20:53.029Z,19.6
2018-07-06T13:26:22.300Z,19.5
2018-07-06T13:31:51.186Z,19.5
2018-07-06T13:37:19.975Z,19.5
2018-07-06T13:42:49.930Z,19.5
2018-07-06T13:53:47.990Z,19.6
2018-07-06T13:59:18.555Z,19.6
2018-07-06T14:04:47.114Z,19.6
2018-07-06T14:10:16.706Z,19.5
2018-07-06T14:15:45.140Z,19.6
2018-07-06T14:21:19.442Z,19.5
2018-07-06T14:26:44.188Z,19.4
2018-07-06T14:32:13.309Z,19.3
2018-07-06T14:37:48.430Z,19.2
2018-07-06T14:43:13.323Z,19.1
2018-07-06T14:48:43.279Z,19
2018-07-06T14:54:12.954Z,19
2018-07-06T14:59:42.249Z,18.9
2018-07-06T15:05:16.835Z,18.9
2018-07-06T15:10:41.868Z,18.8
2018-07-06T15:16:15.725Z,18.8
2018-07-06T15:21:44.645Z,18.6
2018-07-06T15:27:09.559Z,18.5
2018-07-06T15:32:39.464Z,18.4
2018-07-06T15:38:08.340Z,18.4
2018-07-06T15:43:38.218Z,18.4
2018-07-06T15:49:08.156Z,18.3
2018-07-06T15:54:37.068Z,18.3
2018-07-06T16:00:07.130Z,18.1
2018-07-06T16:05:36.345Z,17.8
2018-07-06T16:11:04.504Z,17.6
2018-07-06T16:16:39.408Z,17.6
2018-07-06T16:22:03.248Z,17.7
2018-07-06T16:27:32.157Z,17.9
2018-07-06T16:33:01.887Z,17.9
2018-07-06T16:38:35.610Z,17.8
2018-07-06T16:44:04.487Z,17.6
2018-07-06T16:49:28.233Z,17.3
2018-07-06T16:54:57.158Z,17.1
2018-07-06T17:00:26.711Z,17.1
2018-07-06T17:06:01.081Z,17.1
2018-07-06T17:11:24.225Z,17
2018-07-06T17:16:58.118Z,16.9
2018-07-06T17:22:21.936Z,16.9
2018-07-06T17:27:55.448Z,16.8
2018-07-06T17:33:19.101Z,16.8
2018-07-06T17:38:49.077Z,16.8
2018-07-06T17:44:19.029Z,16.8
2018-07-06T17:49:48.239Z,16.7
2018-07-06T17:55:18.294Z,16.6
2018-07-06T18:00:53.221Z,16.6
2018-07-06T18:06:22.802Z,16.5
2018-07-06T18:11:46.337Z,16.4
2018-07-06T18:17:15.735Z,16.3
2018-07-06T18:22:45.380Z,16.2
2018-07-06T18:28:15.141Z,16
2018-07-06T18:33:50.011Z,15.8
2018-07-06T18:39:14.815Z,15.7
2018-07-06T18:44:41.957Z,15.6
2018-07-06T18:50:15.520Z,15.6
2018-07-06T18:55:44.153Z,15.6
2018-07-06T19:01:08.651Z,15.6
2018-07-06T19:06:38.299Z,15.6
2018-07-06T19:12:07.227Z,15.6
2018-07-06T19:17:35.603Z,15.6
2018-07-06T19:23:10.218Z,15.6
2018-07-06T19:28:33.663Z,15.5
2018-07-06T19:34:03.630Z,15.6
2018-07-06T19:39:32.151Z,15.5
2018-07-06T19:45:00.704Z,15.5
2018-07-06T19:50:30.292Z,15.4
2018-07-06T19:56:04.763Z,15.4
2018-07-06T20:01:29.233Z,15.3
2018-07-06T20:06:58.878Z,15.2
2018-07-06T20:12:28.395Z,15.2
2018-07-06T20:18:02.013Z,15.1
2018-07-06T20:23:31.506Z,15
2018-07-06T20:28:56.141Z,14.9
2018-07-06T20:34:24.956Z,14.8
2018-07-06T20:39:58.811Z,14.8
2018-07-06T20:45:23.061Z,14.8
2018-07-06T20:50:52.242Z,14.7
2018-07-06T20:56:21.945Z,14.6
2018-07-06T21:01:56.561Z,14.6
2018-07-06T21:07:19.823Z,14.5
2018-07-06T21:12:53.565Z,14.5
2018-07-06T21:18:17.649Z,14.4
2018-07-06T21:29:14.942Z,14.4
2018-07-06T21:34:43.126Z,14.3
2018-07-06T21:45:46.077Z,14.2
2018-07-06T21:51:14.531Z,14.1
2018-07-06T21:56:38.198Z,14.1
2018-07-06T22:02:07.505Z,14
2018-07-06T22:07:37.198Z,13.9
2018-07-06T22:13:06.802Z,13.9
2018-07-06T22:18:34.990Z,13.9
2018-07-06T22:24:03.213Z,13.9
2018-07-06T22:29:31.843Z,13.8
2018-07-06T22:35:00.222Z,13.8
2018-07-06T22:40:28.963Z,13.8
2018-07-06T22:45:56.894Z,13.8
2018-07-06T22:51:25.797Z,13.7
2018-07-06T22:57:00.369Z,13.7
2018-07-06T23:02:23.301Z,13.7
2018-07-06T23:07:51.996Z,13.7
2018-07-06T23:13:20.123Z,13.7
2018-07-06T23:18:54.729Z,13.7
2018-07-06T23:24:18.839Z,13.7
2018-07-06T23:29:47.273Z,13.7
2018-07-06T23:35:15.925Z,13.7
2018-07-06T23:40:45.284Z,13.7
2018-07-06T23:46:14.521Z,13.7
2018-07-06T23:51:44.291Z,13.7
2018-07-06T23:57:17.420Z,13.7
